createdAt,value
2023-02-03T00:01:46.919Z,8.80
2023-02-03T00:04:16.557Z,8.63
2023-02-03T00:06:46.330Z,8.75
2023-02-03T00:09:15.989Z,8.73
2023-02-03T00:11:45.592Z,8.57
2023-02-03T00:14:17.912Z,8.77
2023-02-03T00:16:47.592Z,8.90
2023-02-03T00:19:17.794Z,8.60
2023-02-03T00:21:47.431Z,7.95
2023-02-03T00:24:18.908Z,8.35
2023-02-03T00:26:48.506Z,8.65
2023-02-03T00:29:24.989Z,8.27
2023-02-03T00:31:55.393Z,8.43
2023-02-03T00:34:25.407Z,8.60
2023-02-03T00:36:54.999Z,8.70
2023-02-03T00:39:24.709Z,8.10
2023-02-03T00:41:54.281Z,8.13
2023-02-03T00:44:26.700Z,8.18
2023-02-03T00:46:56.577Z,8.00
2023-02-03T00:49:26.153Z,7.60
2023-02-03T00:51:56.350Z,8.52
2023-02-03T00:54:25.926Z,7.78
2023-02-03T00:56:55.632Z,7.90
2023-02-03T00:59:27.874Z,7.57
2023-02-03T01:01:57.534Z,7.43
2023-02-03T01:04:27.859Z,7.63
2023-02-03T01:06:59.855Z,6.90
2023-02-03T01:09:29.510Z,7.32
2023-02-03T01:11:59.076Z,8.05
2023-02-03T01:14:31.267Z,6.90
2023-02-03T01:17:00.989Z,6.50
2023-02-03T01:19:30.637Z,7.25
2023-02-03T01:22:01.329Z,6.93
2023-02-03T01:24:32.473Z,6.80
2023-02-03T01:27:02.077Z,6.70
2023-02-03T01:29:34.250Z,7.03
2023-02-03T01:32:04.415Z,6.57
2023-02-03T01:34:34.016Z,6.43
2023-02-03T01:37:03.564Z,6.40
2023-02-03T01:39:33.102Z,6.95
2023-02-03T01:42:03.124Z,6.93
2023-02-03T01:44:43.521Z,6.22
2023-02-03T01:47:19.356Z,6.63
2023-02-03T01:49:52.455Z,6.55
2023-02-03T01:52:22.104Z,6.03
2023-02-03T01:54:52.947Z,5.82
2023-02-03T01:57:26.061Z,6.00
2023-02-03T02:00:00.273Z,5.97
2023-02-03T02:02:31.051Z,5.88
2023-02-03T02:05:04.827Z,5.88
2023-02-03T02:07:34.802Z,5.68
2023-02-03T02:10:05.279Z,6.07
2023-02-03T02:12:34.904Z,5.75
2023-02-03T02:15:08.203Z,6.13
2023-02-03T02:17:57.132Z,6.00
2023-02-03T02:20:57.311Z,5.93
2023-02-03T02:24:07.341Z,5.55
2023-02-03T02:26:47.722Z,5.28
2023-02-03T02:30:00.429Z,5.07
2023-02-03T02:32:39.950Z,5.30
2023-02-03T02:35:19.064Z,6.05
2023-02-03T02:37:54.187Z,5.63
2023-02-03T02:40:28.411Z,5.63
2023-02-03T02:43:07.718Z,5.75
2023-02-03T02:45:44.128Z,5.32
2023-02-03T02:48:20.271Z,4.97
2023-02-03T02:50:52.463Z,4.95
2023-02-03T02:53:24.466Z,5.43
2023-02-03T02:55:55.216Z,5.13
2023-02-03T02:58:25.835Z,5.28
2023-02-03T03:00:57.926Z,5.10
2023-02-03T03:03:30.248Z,5.03
2023-02-03T03:06:02.997Z,4.68
2023-02-03T03:08:46.762Z,4.97
2023-02-03T03:11:16.358Z,4.85
2023-02-03T03:13:51.212Z,5.20
2023-02-03T03:16:24.807Z,5.10
2023-02-03T03:18:59.461Z,5.05
2023-02-03T03:21:31.408Z,4.75
2023-02-03T03:24:02.833Z,5.05
2023-02-03T03:26:37.287Z,5.38
2023-02-03T03:29:10.792Z,5.45
2023-02-03T03:31:41.538Z,5.43
2023-02-03T03:34:15.151Z,5.60
2023-02-03T03:36:47.649Z,5.90
2023-02-03T03:39:23.353Z,5.28
2023-02-03T03:42:00.635Z,6.35
2023-02-03T03:44:33.000Z,5.90
2023-02-03T03:47:08.328Z,5.78
2023-02-03T03:49:42.278Z,5.38
2023-02-03T03:52:13.509Z,5.95
2023-02-03T03:54:44.057Z,5.90
2023-02-03T03:57:17.451Z,5.70
2023-02-03T03:59:49.186Z,6.97
2023-02-03T04:02:20.965Z,6.47
2023-02-03T04:04:53.698Z,6.30
2023-02-03T04:07:23.268Z,7.55
2023-02-03T04:09:52.836Z,5.63
2023-02-03T04:12:26.035Z,6.35
2023-02-03T04:14:55.592Z,6.50
2023-02-03T04:17:25.358Z,5.97
2023-02-03T04:19:57.509Z,6.22
2023-02-03T04:22:27.103Z,6.05
2023-02-03T04:24:58.932Z,6.43
2023-02-03T04:27:28.516Z,6.80
2023-02-03T04:29:58.109Z,5.85
2023-02-03T04:32:27.815Z,6.22
2023-02-03T04:35:00.335Z,5.22
2023-02-03T04:37:30.353Z,5.63
2023-02-03T04:40:00.290Z,5.82
2023-02-03T04:42:29.986Z,6.60
2023-02-03T04:44:59.551Z,5.20
2023-02-03T04:47:29.149Z,5.40
2023-02-03T04:50:01.313Z,4.97
2023-02-03T04:52:31.413Z,4.85
2023-02-03T04:55:01.007Z,4.88
2023-02-03T04:57:30.614Z,4.43
2023-02-03T05:00:00.179Z,4.50
2023-02-03T05:02:29.812Z,4.80
2023-02-03T05:05:01.956Z,4.70
2023-02-03T05:07:31.546Z,4.97
2023-02-03T05:10:01.105Z,5.00
2023-02-03T05:12:30.666Z,4.85
2023-02-03T05:15:00.287Z,4.30
2023-02-03T05:17:29.844Z,4.88
2023-02-03T05:20:02.045Z,3.95
2023-02-03T05:22:31.617Z,4.30
2023-02-03T05:25:01.186Z,5.20
2023-02-03T05:27:30.750Z,4.85
2023-02-03T05:30:00.330Z,4.20
2023-02-03T05:32:29.923Z,4.25
2023-02-03T05:35:02.138Z,4.28
2023-02-03T05:37:31.700Z,4.25
2023-02-03T05:40:21.313Z,4.20
2023-02-03T05:42:48.687Z,4.35
2023-02-03T05:45:18.889Z,5.03
2023-02-03T05:47:48.479Z,4.32
2023-02-03T05:50:22.855Z,7.75
2023-02-03T05:52:52.505Z,4.15
2023-02-03T05:55:22.071Z,4.47
2023-02-03T05:57:52.087Z,5.15
2023-02-03T06:00:23.556Z,4.05
2023-02-03T06:02:57.490Z,3.95
2023-02-03T06:05:29.762Z,3.65
2023-02-03T06:07:59.443Z,3.85
2023-02-03T06:10:29.902Z,3.50
2023-02-03T06:12:59.915Z,3.83
2023-02-03T06:15:29.539Z,3.97
2023-02-03T06:17:59.099Z,4.22
2023-02-03T06:20:31.285Z,3.80
2023-02-03T06:23:01.020Z,4.47
2023-02-03T06:25:32.179Z,3.70
2023-02-03T06:28:01.888Z,3.40
2023-02-03T06:30:31.699Z,3.35
2023-02-03T06:33:01.388Z,3.30
2023-02-03T06:35:33.613Z,3.30
2023-02-03T06:38:03.374Z,3.72
2023-02-03T06:40:32.921Z,3.53
2023-02-03T06:43:02.506Z,3.28
2023-02-03T06:45:32.412Z,3.45
2023-02-03T06:48:02.137Z,3.40
2023-02-03T06:50:34.370Z,2.90
2023-02-03T06:53:03.936Z,3.13
2023-02-03T06:55:33.595Z,3.05
2023-02-03T06:58:03.201Z,3.40
2023-02-03T07:00:32.889Z,2.92
2023-02-03T07:03:03.132Z,4.40
2023-02-03T07:05:36.943Z,4.80
2023-02-03T07:08:06.562Z,5.43
2023-02-03T07:10:36.297Z,3.50
2023-02-03T07:13:06.492Z,4.28
2023-02-03T07:15:36.407Z,3.17
2023-02-03T07:18:06.306Z,3.58
2023-02-03T07:20:38.494Z,4.38
2023-02-03T07:23:08.068Z,4.50
2023-02-03T07:25:37.881Z,3.00
2023-02-03T07:28:07.910Z,3.60
2023-02-03T07:30:37.595Z,12.10
2023-02-03T07:33:07.984Z,3.50
2023-02-03T07:35:40.127Z,3.05
2023-02-03T07:38:09.696Z,3.47
2023-02-03T07:40:39.321Z,3.45
2023-02-03T07:43:08.875Z,3.38
2023-02-03T07:45:38.440Z,3.20
2023-02-03T07:48:08.353Z,3.53
2023-02-03T07:50:40.760Z,3.03
2023-02-03T07:53:10.535Z,3.20
2023-02-03T07:55:41.048Z,3.33
2023-02-03T07:58:10.654Z,3.40
2023-02-03T08:00:40.260Z,3.33
2023-02-03T08:03:09.860Z,3.30
2023-02-03T08:05:42.074Z,3.75
2023-02-03T08:08:11.658Z,3.35
2023-02-03T08:10:41.247Z,3.67
2023-02-03T08:13:10.852Z,3.38
2023-02-03T08:15:40.426Z,3.42
2023-02-03T08:18:12.649Z,4.00
2023-02-03T08:20:45.400Z,4.18
2023-02-03T08:23:14.990Z,4.00
2023-02-03T08:25:44.578Z,4.00
2023-02-03T08:28:14.220Z,3.60
2023-02-03T08:30:43.832Z,3.33
2023-02-03T08:33:13.408Z,4.18
2023-02-03T08:35:48.587Z,4.15
2023-02-03T08:38:18.279Z,3.92
2023-02-03T08:40:47.868Z,3.80
2023-02-03T08:43:17.469Z,3.17
2023-02-03T08:45:47.270Z,3.40
2023-02-03T08:48:17.049Z,3.70
2023-02-03T08:50:52.928Z,3.63
2023-02-03T08:53:22.637Z,4.07
2023-02-03T08:55:52.272Z,3.92
2023-02-03T08:58:21.861Z,3.83
2023-02-03T09:00:53.388Z,3.92
2023-02-03T09:03:22.984Z,3.88
2023-02-03T09:05:55.130Z,4.20
2023-02-03T09:08:24.679Z,4.55
2023-02-03T09:10:54.249Z,4.03
2023-02-03T09:13:24.011Z,5.07
2023-02-03T09:15:53.719Z,4.32
2023-02-03T09:18:23.300Z,4.75
2023-02-03T09:20:55.478Z,4.90
2023-02-03T09:23:25.221Z,4.85
2023-02-03T09:25:54.799Z,6.18
2023-02-03T09:28:24.405Z,5.63
2023-02-03T09:30:53.993Z,6.65
2023-02-03T09:33:23.561Z,7.40
2023-02-03T09:35:59.384Z,7.20
2023-02-03T09:38:29.861Z,6.65
2023-02-03T09:41:11.220Z,6.22
2023-02-03T09:43:44.741Z,5.30
2023-02-03T09:46:17.960Z,5.70
2023-02-03T09:48:51.761Z,5.87
2023-02-03T09:51:26.944Z,6.53
2023-02-03T09:54:01.380Z,5.90
2023-02-03T09:56:35.380Z,6.18
2023-02-03T09:59:05.960Z,6.53
2023-02-03T10:01:41.193Z,6.35
2023-02-03T10:04:28.024Z,6.57
2023-02-03T10:07:06.989Z,6.00
2023-02-03T10:09:48.655Z,7.10
2023-02-03T10:12:44.271Z,6.60
2023-02-03T10:15:27.183Z,6.63
2023-02-03T10:17:59.591Z,6.90
2023-02-03T10:20:36.914Z,7.82
2023-02-03T10:23:14.486Z,7.45
2023-02-03T10:25:46.595Z,7.38
2023-02-03T10:28:22.411Z,7.10
2023-02-03T10:30:59.502Z,6.75
2023-02-03T10:33:32.967Z,7.30
2023-02-03T10:36:08.055Z,7.50
2023-02-03T10:38:54.010Z,7.85
2023-02-03T10:41:24.417Z,7.63
2023-02-03T10:43:57.585Z,7.53
2023-02-03T10:46:31.163Z,7.77
2023-02-03T10:49:00.905Z,8.35
2023-02-03T10:51:33.082Z,8.30
2023-02-03T10:54:05.269Z,8.00
2023-02-03T10:56:38.066Z,8.23
2023-02-03T10:59:09.842Z,8.85
2023-02-03T11:01:44.652Z,9.60
2023-02-03T11:04:27.261Z,9.05
2023-02-03T11:06:58.897Z,9.90
2023-02-03T11:09:37.284Z,10.45
2023-02-03T11:12:13.756Z,10.52
2023-02-03T11:14:45.796Z,8.63
2023-02-03T11:17:19.903Z,8.40
2023-02-03T11:22:30.245Z,10.02
2023-02-03T11:25:03.058Z,8.60
2023-02-03T11:27:33.483Z,9.35
2023-02-03T11:30:14.188Z,9.40
2023-02-03T11:32:45.121Z,8.98
2023-02-03T11:35:19.465Z,9.30
2023-02-03T11:37:50.393Z,8.80
2023-02-03T11:40:34.090Z,9.40
2023-02-03T11:43:06.346Z,9.73
2023-02-03T11:45:42.126Z,8.93
2023-02-03T11:48:21.450Z,9.73
2023-02-03T11:50:55.024Z,9.38
2023-02-03T11:53:30.526Z,9.20
2023-02-03T11:56:30.590Z,9.57
2023-02-03T11:59:10.071Z,9.77
2023-02-03T12:01:55.190Z,8.95
2023-02-03T12:04:32.577Z,9.40
2023-02-03T12:07:11.020Z,10.30
2023-02-03T12:09:49.686Z,10.13
2023-02-03T12:12:41.521Z,9.80
2023-02-03T12:15:24.235Z,10.40
2023-02-03T12:18:06.122Z,10.05
2023-02-03T12:20:47.171Z,10.75
2023-02-03T12:23:25.637Z,10.27
2023-02-03T12:26:03.929Z,9.40
2023-02-03T12:28:44.455Z,9.90
2023-02-03T12:31:17.944Z,9.55
2023-02-03T12:33:51.468Z,9.55
2023-02-03T12:36:25.334Z,9.77
2023-02-03T12:38:57.646Z,9.80
2023-02-03T12:41:30.783Z,8.52
2023-02-03T12:44:07.862Z,8.73
2023-02-03T12:46:41.541Z,8.68
2023-02-03T12:49:16.234Z,8.20
2023-02-03T12:51:50.057Z,7.95
2023-02-03T12:54:39.514Z,10.82
2023-02-03T12:57:18.379Z,8.18
2023-02-03T13:00:00.835Z,7.55
2023-02-03T13:02:32.635Z,7.85
2023-02-03T13:05:07.495Z,7.70
2023-02-03T13:07:42.323Z,7.50
2023-02-03T13:10:19.033Z,7.05
2023-02-03T13:12:52.737Z,7.00
2023-02-03T13:15:28.696Z,6.97
2023-02-03T13:18:00.808Z,6.53
2023-02-03T13:20:33.530Z,7.35
2023-02-03T13:23:03.131Z,6.75
2023-02-03T13:25:38.209Z,5.82
2023-02-03T13:28:16.510Z,5.68
2023-02-03T13:31:16.324Z,5.93
2023-02-03T13:34:15.878Z,5.60
2023-02-03T13:37:15.222Z,5.53
2023-02-03T13:39:52.788Z,5.13
2023-02-03T13:42:28.776Z,5.38
2023-02-03T13:45:01.085Z,5.97
2023-02-03T13:47:34.504Z,5.38
2023-02-03T13:50:06.822Z,5.10
2023-02-03T13:52:38.957Z,5.30
2023-02-03T13:55:10.386Z,5.20
2023-02-03T13:57:41.204Z,4.80
2023-02-03T14:00:46.576Z,5.20
2023-02-03T14:03:22.075Z,5.22
2023-02-03T14:05:54.520Z,5.25
2023-02-03T14:08:45.692Z,5.35
2023-02-03T14:11:47.155Z,6.07
2023-02-03T14:14:45.115Z,6.97
2023-02-03T14:17:44.575Z,6.00
2023-02-03T14:20:43.795Z,5.90
2023-02-03T14:23:19.936Z,5.50
2023-02-03T14:25:55.425Z,5.60
2023-02-03T14:28:27.768Z,5.25
2023-02-03T14:31:12.699Z,6.28
2023-02-03T14:34:08.850Z,8.70
2023-02-03T14:36:42.305Z,6.50
2023-02-03T14:39:44.373Z,6.05
2023-02-03T14:42:27.816Z,5.97
2023-02-03T14:45:08.628Z,5.78
2023-02-03T14:47:48.820Z,6.10
2023-02-03T14:50:35.442Z,5.78
2023-02-03T14:53:27.124Z,6.38
2023-02-03T14:56:06.837Z,6.50
2023-02-03T14:58:43.460Z,6.90
2023-02-03T15:01:28.975Z,7.38
2023-02-03T15:04:23.430Z,6.85
2023-02-03T15:06:54.683Z,7.25
2023-02-03T15:09:29.072Z,6.88
2023-02-03T15:11:58.720Z,7.30
2023-02-03T15:14:32.676Z,5.80
2023-02-03T15:17:04.109Z,5.75
2023-02-03T15:19:37.169Z,5.80
2023-02-03T15:22:21.314Z,4.80
2023-02-03T15:24:52.592Z,5.15
2023-02-03T15:27:27.364Z,5.00
2023-02-03T15:29:59.755Z,4.90
2023-02-03T15:32:33.306Z,5.70
2023-02-03T15:35:05.263Z,4.70
2023-02-03T15:37:38.493Z,4.55
2023-02-03T15:40:11.415Z,4.13
2023-02-03T15:42:44.769Z,4.80
2023-02-03T15:45:24.135Z,4.80
2023-02-03T15:47:55.905Z,4.45
2023-02-03T15:50:31.078Z,4.68
2023-02-03T15:53:06.409Z,4.80
2023-02-03T15:55:40.580Z,4.38
2023-02-03T16:00:51.013Z,4.18
2023-02-03T16:03:22.643Z,4.60
2023-02-03T16:05:52.603Z,4.32
2023-02-03T16:08:30.434Z,4.95
2023-02-03T16:11:00.069Z,5.07
2023-02-03T16:13:32.401Z,5.03
2023-02-03T16:16:10.957Z,5.00
2023-02-03T16:18:40.789Z,4.45
2023-02-03T16:21:28.228Z,4.70
2023-02-03T16:23:57.844Z,4.72
2023-02-03T16:26:29.189Z,5.45
2023-02-03T16:29:30.153Z,5.03
2023-02-03T16:32:15.584Z,5.40
2023-02-03T16:34:58.705Z,4.82
2023-02-03T16:37:42.625Z,4.35
2023-02-03T16:40:26.508Z,4.82
2023-02-03T16:43:08.691Z,4.53
2023-02-03T16:45:51.254Z,5.45
2023-02-03T16:48:36.085Z,7.22
2023-02-03T16:51:08.873Z,7.05
2023-02-03T16:53:38.586Z,5.07
2023-02-03T16:56:09.100Z,4.55
2023-02-03T16:58:38.791Z,4.60
2023-02-03T17:01:09.770Z,5.00
2023-02-03T17:03:42.528Z,4.15
2023-02-03T17:06:15.036Z,12.75
2023-02-03T17:08:45.264Z,5.88
2023-02-03T17:11:18.415Z,4.78
2023-02-03T17:13:49.213Z,5.38
2023-02-03T17:16:20.829Z,5.00
2023-02-03T17:18:53.540Z,5.00
2023-02-03T17:21:25.126Z,4.65
2023-02-03T17:23:54.811Z,4.80
2023-02-03T17:26:24.524Z,11.38
2023-02-03T17:28:54.272Z,5.10
2023-02-03T17:31:24.111Z,4.85
2023-02-03T17:33:56.531Z,5.03
2023-02-03T17:36:26.537Z,4.35
2023-02-03T17:55:24.416Z,5.18
2023-02-03T17:57:54.309Z,4.68
2023-02-03T18:00:23.964Z,4.63
2023-02-03T18:02:54.235Z,4.80
2023-02-03T18:05:26.412Z,4.70
2023-02-03T18:07:55.996Z,4.28
2023-02-03T18:10:25.665Z,4.40
2023-02-03T18:12:55.523Z,4.60
2023-02-03T18:15:25.191Z,4.72
2023-02-03T18:17:54.797Z,4.78
2023-02-03T18:20:27.122Z,4.00
2023-02-03T18:22:56.789Z,4.38
2023-02-03T18:25:26.557Z,4.45
2023-02-03T18:27:56.158Z,4.80
2023-02-03T18:30:26.034Z,4.43
2023-02-03T18:32:55.684Z,4.97
2023-02-03T18:35:27.856Z,4.28
2023-02-03T18:37:57.440Z,5.10
2023-02-03T18:40:27.021Z,6.60
2023-02-03T18:42:56.959Z,4.78
2023-02-03T18:45:26.524Z,4.68
2023-02-03T18:47:56.142Z,4.18
2023-02-03T18:50:28.835Z,4.32
2023-02-03T18:52:58.924Z,4.78
2023-02-03T18:55:28.626Z,4.53
2023-02-03T18:57:58.530Z,5.22
2023-02-03T19:00:28.811Z,4.82
2023-02-03T19:02:58.710Z,5.00
2023-02-03T19:05:31.177Z,5.07
2023-02-03T19:08:00.777Z,4.80
2023-02-03T19:10:32.348Z,4.90
2023-02-03T19:13:01.929Z,4.75
2023-02-03T19:15:31.562Z,4.43
2023-02-03T19:18:01.229Z,4.78
2023-02-03T19:20:33.398Z,5.25
2023-02-03T19:23:04.528Z,5.38
2023-02-03T19:25:34.083Z,4.70
2023-02-03T19:28:03.854Z,5.28
2023-02-03T19:30:34.523Z,4.85
2023-02-03T19:33:04.676Z,4.95
2023-02-03T19:35:36.849Z,5.05
2023-02-03T19:38:06.448Z,4.80
2023-02-03T19:40:36.288Z,4.50
2023-02-03T19:43:06.671Z,4.45
2023-02-03T19:45:36.246Z,5.13
2023-02-03T19:48:05.867Z,4.82
2023-02-03T19:50:38.243Z,4.53
2023-02-03T19:53:09.649Z,5.40
2023-02-03T19:55:39.300Z,4.70
2023-02-03T19:58:08.882Z,4.68
2023-02-03T20:00:38.510Z,4.78
2023-02-03T20:03:08.089Z,4.45
2023-02-03T20:05:40.510Z,4.88
2023-02-03T20:08:12.948Z,5.07
2023-02-03T20:10:44.628Z,4.93
2023-02-03T20:13:14.778Z,4.55
2023-02-03T20:15:47.505Z,5.25
2023-02-03T20:18:17.580Z,4.78
2023-02-03T20:20:52.957Z,4.78
2023-02-03T20:23:22.571Z,4.68
2023-02-03T20:25:53.150Z,5.43
2023-02-03T20:28:24.103Z,5.18
2023-02-03T20:30:53.800Z,6.22
2023-02-03T20:33:23.402Z,5.40
2023-02-03T20:35:55.854Z,6.68
2023-02-03T20:38:25.463Z,10.52
2023-02-03T20:40:55.087Z,6.00
2023-02-03T20:43:29.612Z,5.55
2023-02-03T20:45:59.246Z,5.00
2023-02-03T20:48:29.034Z,5.45
2023-02-03T20:51:01.239Z,5.60
2023-02-03T20:53:30.839Z,4.88
2023-02-03T20:56:01.937Z,6.00
2023-02-03T20:58:33.542Z,6.57
2023-02-03T21:01:04.074Z,5.55
2023-02-03T21:03:46.178Z,5.85
2023-02-03T21:06:20.333Z,5.43
2023-02-03T21:11:26.582Z,5.35
2023-02-03T21:13:56.571Z,5.30
2023-02-03T21:16:28.108Z,5.63
2023-02-03T21:19:02.202Z,5.15
2023-02-03T21:21:38.121Z,5.18
2023-02-03T21:24:25.568Z,5.20
2023-02-03T21:26:56.901Z,5.70
2023-02-03T21:29:28.596Z,5.53
2023-02-03T21:31:58.606Z,5.18
2023-02-03T21:34:30.966Z,5.30
2023-02-03T21:37:10.584Z,5.43
2023-02-03T21:39:40.168Z,4.90
2023-02-03T21:42:41.174Z,5.45
2023-02-03T21:45:40.674Z,4.97
2023-02-03T21:48:29.055Z,4.65
2023-02-03T21:50:59.527Z,4.70
2023-02-03T21:53:35.935Z,4.88
2023-02-03T21:56:18.841Z,4.90
2023-02-03T21:58:50.794Z,4.20
2023-02-03T22:01:22.962Z,4.80
2023-02-03T22:03:53.804Z,4.88
2023-02-03T22:06:26.265Z,4.88
2023-02-03T22:08:59.698Z,4.63
2023-02-03T22:11:31.411Z,4.93
2023-02-03T22:14:00.998Z,4.43
2023-02-03T22:16:31.156Z,4.90
2023-02-03T22:19:00.761Z,4.88
2023-02-03T22:21:30.381Z,4.75
2023-02-03T22:24:02.913Z,4.85
2023-02-03T22:26:32.697Z,4.43
2023-02-03T22:29:02.429Z,4.93
2023-02-03T22:31:32.159Z,4.75
2023-02-03T22:34:01.824Z,4.45
2023-02-03T22:36:31.414Z,4.50
2023-02-03T22:39:04.146Z,4.50
2023-02-03T22:41:33.723Z,4.63
2023-02-03T22:44:03.307Z,4.18
2023-02-03T22:46:33.298Z,4.40
2023-02-03T22:49:03.253Z,5.00
2023-02-03T22:51:32.844Z,4.22
2023-02-03T22:54:05.070Z,4.13
2023-02-03T22:56:34.625Z,4.40
2023-02-03T22:59:04.178Z,4.50
2023-02-03T23:01:34.589Z,4.97
2023-02-03T23:04:04.251Z,4.70
2023-02-03T23:06:33.827Z,4.70
2023-02-03T23:09:06.056Z,4.82
2023-02-03T23:11:35.663Z,5.00
2023-02-03T23:14:05.255Z,4.43
2023-02-03T23:16:34.868Z,4.97
2023-02-03T23:19:04.434Z,5.30
2023-02-03T23:21:34.046Z,4.53
2023-02-03T23:24:06.760Z,5.57
2023-02-03T23:26:36.362Z,5.18
2023-02-03T23:29:06.011Z,4.60
2023-02-03T23:31:36.076Z,4.22
2023-02-03T23:34:18.188Z,5.25
2023-02-03T23:36:47.782Z,5.18
2023-02-03T23:39:20.009Z,4.65
2023-02-03T23:41:49.585Z,4.80
2023-02-03T23:44:19.180Z,5.65
2023-02-03T23:46:49.262Z,5.07
2023-02-03T23:49:18.822Z,5.03
2023-02-03T23:51:48.420Z,5.40
2023-02-03T23:54:20.581Z,5.70
2023-02-03T23:56:50.160Z,5.00
2023-02-03T23:59:19.709Z,4.72
